sensor_id;sensor_type;location;lat;lon;timestamp;P1;durP1;ratioP1;P2;durP2;ratioP2
25125;SDS011;13106;50.808;5.670;2023-04-26T00:02:09;11.07;;;4.78;;
25125;SDS011;13106;50.808;5.670;2023-04-26T00:04:35;8.48;;;4.68;;
25125;SDS011;13106;50.808;5.670;2023-04-26T00:07:02;12.90;;;5.05;;
25125;SDS011;13106;50.808;5.670;2023-04-26T00:09:29;8.10;;;5.00;;
25125;SDS011;13106;50.808;5.670;2023-04-26T00:11:55;8.90;;;4.85;;
25125;SDS011;13106;50.808;5.670;2023-04-26T00:14:21;10.25;;;5.47;;
25125;SDS011;13106;50.808;5.670;2023-04-26T00:16:47;10.13;;;5.20;;
25125;SDS011;13106;50.808;5.670;2023-04-26T00:19:13;10.05;;;5.63;;
25125;SDS011;13106;50.808;5.670;2023-04-26T00:21:40;10.35;;;5.57;;
25125;SDS011;13106;50.808;5.670;2023-04-26T00:24:06;11.95;;;5.28;;
25125;SDS011;13106;50.808;5.670;2023-04-26T00:26:32;7.55;;;5.22;;
25125;SDS011;13106;50.808;5.670;2023-04-26T00:28:59;12.35;;;5.95;;
25125;SDS011;13106;50.808;5.670;2023-04-26T00:31:25;8.80;;;4.97;;
25125;SDS011;13106;50.808;5.670;2023-04-26T00:33:52;11.05;;;5.93;;
25125;SDS011;13106;50.808;5.670;2023-04-26T00:36:18;8.27;;;5.63;;
25125;SDS011;13106;50.808;5.670;2023-04-26T00:38:45;11.65;;;5.63;;
25125;SDS011;13106;50.808;5.670;2023-04-26T00:41:11;12.55;;;5.95;;
25125;SDS011;13106;50.808;5.670;2023-04-26T00:43:37;10.77;;;6.35;;
25125;SDS011;13106;50.808;5.670;2023-04-26T00:46:04;9.43;;;5.70;;
25125;SDS011;13106;50.808;5.670;2023-04-26T00:48:30;10.40;;;5.90;;
25125;SDS011;13106;50.808;5.670;2023-04-26T00:50:56;14.32;;;6.30;;
25125;SDS011;13106;50.808;5.670;2023-04-26T00:53:22;7.82;;;5.97;;
25125;SDS011;13106;50.808;5.670;2023-04-26T00:55:48;7.03;;;5.40;;
25125;SDS011;13106;50.808;5.670;2023-04-26T00:58:15;11.10;;;6.10;;
25125;SDS011;13106;50.808;5.670;2023-04-26T01:00:42;11.82;;;5.50;;
25125;SDS011;13106;50.808;5.670;2023-04-26T01:03:09;10.80;;;5.82;;
25125;SDS011;13106;50.808;5.670;2023-04-26T01:05:36;10.00;;;6.03;;
25125;SDS011;13106;50.808;5.670;2023-04-26T01:08:02;11.48;;;5.72;;
25125;SDS011;13106;50.808;5.670;2023-04-26T01:10:29;10.88;;;6.00;;
25125;SDS011;13106;50.808;5.670;2023-04-26T01:12:56;12.38;;;5.72;;
25125;SDS011;13106;50.808;5.670;2023-04-26T01:15:22;12.40;;;5.68;;
25125;SDS011;13106;50.808;5.670;2023-04-26T01:17:48;10.07;;;6.57;;
25125;SDS011;13106;50.808;5.670;2023-04-26T01:20:16;12.55;;;5.93;;
25125;SDS011;13106;50.808;5.670;2023-04-26T01:22:42;13.10;;;5.97;;
25125;SDS011;13106;50.808;5.670;2023-04-26T01:25:09;9.65;;;5.03;;
25125;SDS011;13106;50.808;5.670;2023-04-26T01:27:36;10.32;;;4.63;;
25125;SDS011;13106;50.808;5.670;2023-04-26T01:30:03;7.68;;;4.68;;
25125;SDS011;13106;50.808;5.670;2023-04-26T01:32:29;9.75;;;4.70;;
25125;SDS011;13106;50.808;5.670;2023-04-26T01:34:55;11.20;;;4.70;;
25125;SDS011;13106;50.808;5.670;2023-04-26T01:37:21;12.80;;;5.75;;
25125;SDS011;13106;50.808;5.670;2023-04-26T01:39:47;12.20;;;6.05;;
25125;SDS011;13106;50.808;5.670;2023-04-26T01:42:13;9.55;;;5.68;;
25125;SDS011;13106;50.808;5.670;2023-04-26T01:44:39;9.55;;;5.00;;
25125;SDS011;13106;50.808;5.670;2023-04-26T01:47:05;13.40;;;5.18;;
25125;SDS011;13106;50.808;5.670;2023-04-26T01:49:31;9.18;;;5.55;;
25125;SDS011;13106;50.808;5.670;2023-04-26T01:51:57;11.52;;;5.75;;
25125;SDS011;13106;50.808;5.670;2023-04-26T01:54:23;14.45;;;5.50;;
25125;SDS011;13106;50.808;5.670;2023-04-26T01:56:50;17.00;;;5.57;;
25125;SDS011;13106;50.808;5.670;2023-04-26T01:59:16;13.85;;;6.90;;
25125;SDS011;13106;50.808;5.670;2023-04-26T02:01:42;13.10;;;8.25;;
25125;SDS011;13106;50.808;5.670;2023-04-26T02:04:08;13.57;;;9.48;;
25125;SDS011;13106;50.808;5.670;2023-04-26T02:06:34;20.33;;;8.13;;
25125;SDS011;13106;50.808;5.670;2023-04-26T02:09:02;11.93;;;7.30;;
25125;SDS011;13106;50.808;5.670;2023-04-26T02:11:28;13.15;;;7.13;;
25125;SDS011;13106;50.808;5.670;2023-04-26T02:13:54;9.10;;;6.32;;
25125;SDS011;13106;50.808;5.670;2023-04-26T02:16:20;13.55;;;7.15;;
25125;SDS011;13106;50.808;5.670;2023-04-26T02:18:46;10.25;;;6.40;;
25125;SDS011;13106;50.808;5.670;2023-04-26T02:21:17;13.70;;;6.60;;
25125;SDS011;13106;50.808;5.670;2023-04-26T02:23:43;10.70;;;6.53;;
25125;SDS011;13106;50.808;5.670;2023-04-26T02:26:09;11.88;;;6.63;;
25125;SDS011;13106;50.808;5.670;2023-04-26T02:28:38;11.65;;;6.57;;
25125;SDS011;13106;50.808;5.670;2023-04-26T02:31:04;20.58;;;6.90;;
25125;SDS011;13106;50.808;5.670;2023-04-26T02:33:30;10.13;;;6.53;;
25125;SDS011;13106;50.808;5.670;2023-04-26T02:35:56;10.93;;;5.90;;
25125;SDS011;13106;50.808;5.670;2023-04-26T02:38:23;13.20;;;6.40;;
25125;SDS011;13106;50.808;5.670;2023-04-26T02:40:58;14.00;;;6.00;;
25125;SDS011;13106;50.808;5.670;2023-04-26T02:43:24;9.63;;;5.88;;
25125;SDS011;13106;50.808;5.670;2023-04-26T02:45:51;11.77;;;6.57;;
25125;SDS011;13106;50.808;5.670;2023-04-26T02:48:17;10.82;;;6.35;;
25125;SDS011;13106;50.808;5.670;2023-04-26T02:50:43;13.27;;;6.30;;
25125;SDS011;13106;50.808;5.670;2023-04-26T02:53:09;12.27;;;6.18;;
25125;SDS011;13106;50.808;5.670;2023-04-26T02:55:36;18.23;;;7.53;;
25125;SDS011;13106;50.808;5.670;2023-04-26T02:58:02;12.50;;;7.63;;
25125;SDS011;13106;50.808;5.670;2023-04-26T03:00:28;10.95;;;7.30;;
25125;SDS011;13106;50.808;5.670;2023-04-26T03:02:55;14.30;;;6.68;;
25125;SDS011;13106;50.808;5.670;2023-04-26T03:05:21;12.20;;;6.38;;
25125;SDS011;13106;50.808;5.670;2023-04-26T03:07:47;12.52;;;6.22;;
25125;SDS011;13106;50.808;5.670;2023-04-26T03:10:13;13.45;;;6.88;;
25125;SDS011;13106;50.808;5.670;2023-04-26T03:12:39;14.63;;;7.32;;
25125;SDS011;13106;50.808;5.670;2023-04-26T03:15:06;18.52;;;10.73;;
25125;SDS011;13106;50.808;5.670;2023-04-26T03:17:32;19.48;;;10.10;;
25125;SDS011;13106;50.808;5.670;2023-04-26T03:19:58;17.75;;;9.95;;
25125;SDS011;13106;50.808;5.670;2023-04-26T03:22:24;22.02;;;9.57;;
25125;SDS011;13106;50.808;5.670;2023-04-26T03:24:50;13.27;;;9.63;;
25125;SDS011;13106;50.808;5.670;2023-04-26T03:27:16;13.27;;;8.95;;
25125;SDS011;13106;50.808;5.670;2023-04-26T03:29:42;17.80;;;9.55;;
25125;SDS011;13106;50.808;5.670;2023-04-26T03:32:08;19.45;;;11.50;;
25125;SDS011;13106;50.808;5.670;2023-04-26T03:34:34;22.38;;;13.85;;
25125;SDS011;13106;50.808;5.670;2023-04-26T03:37:01;22.23;;;14.30;;
25125;SDS011;13106;50.808;5.670;2023-04-26T03:39:27;24.08;;;16.17;;
25125;SDS011;13106;50.808;5.670;2023-04-26T03:41:53;20.25;;;13.00;;
25125;SDS011;13106;50.808;5.670;2023-04-26T03:44:19;17.75;;;12.00;;
25125;SDS011;13106;50.808;5.670;2023-04-26T03:46:45;16.83;;;12.60;;
25125;SDS011;13106;50.808;5.670;2023-04-26T03:49:11;18.08;;;11.13;;
25125;SDS011;13106;50.808;5.670;2023-04-26T03:51:37;23.65;;;12.48;;
25125;SDS011;13106;50.808;5.670;2023-04-26T03:54:03;21.35;;;12.23;;
25125;SDS011;13106;50.808;5.670;2023-04-26T03:56:30;19.83;;;9.23;;
25125;SDS011;13106;50.808;5.670;2023-04-26T03:58:56;16.42;;;11.15;;
25125;SDS011;13106;50.808;5.670;2023-04-26T04:01:22;18.40;;;11.57;;
25125;SDS011;13106;50.808;5.670;2023-04-26T04:03:48;21.23;;;10.30;;
25125;SDS011;13106;50.808;5.670;2023-04-26T04:06:14;17.95;;;10.65;;
25125;SDS011;13106;50.808;5.670;2023-04-26T04:08:40;22.95;;;12.65;;
25125;SDS011;13106;50.808;5.670;2023-04-26T04:11:06;17.25;;;10.82;;
25125;SDS011;13106;50.808;5.670;2023-04-26T04:13:32;24.00;;;12.35;;
25125;SDS011;13106;50.808;5.670;2023-04-26T04:15:58;18.83;;;11.25;;
25125;SDS011;13106;50.808;5.670;2023-04-26T04:18:25;24.42;;;11.27;;
25125;SDS011;13106;50.808;5.670;2023-04-26T04:20:51;26.27;;;8.65;;
25125;SDS011;13106;50.808;5.670;2023-04-26T04:23:17;24.10;;;8.10;;
25125;SDS011;13106;50.808;5.670;2023-04-26T04:25:43;14.90;;;6.97;;
25125;SDS011;13106;50.808;5.670;2023-04-26T04:28:11;18.90;;;8.30;;
25125;SDS011;13106;50.808;5.670;2023-04-26T04:30:38;20.80;;;9.00;;
25125;SDS011;13106;50.808;5.670;2023-04-26T04:33:05;20.50;;;7.90;;
25125;SDS011;13106;50.808;5.670;2023-04-26T04:35:31;16.13;;;7.65;;
25125;SDS011;13106;50.808;5.670;2023-04-26T04:37:58;21.60;;;8.10;;
25125;SDS011;13106;50.808;5.670;2023-04-26T04:40:24;21.17;;;7.60;;
25125;SDS011;13106;50.808;5.670;2023-04-26T04:42:50;18.45;;;7.72;;
25125;SDS011;13106;50.808;5.670;2023-04-26T04:45:18;20.17;;;8.23;;
25125;SDS011;13106;50.808;5.670;2023-04-26T04:47:44;19.33;;;7.85;;
25125;SDS011;13106;50.808;5.670;2023-04-26T04:50:10;13.27;;;7.85;;
25125;SDS011;13106;50.808;5.670;2023-04-26T04:52:36;12.20;;;7.13;;
25125;SDS011;13106;50.808;5.670;2023-04-26T04:55:03;17.33;;;7.32;;
25125;SDS011;13106;50.808;5.670;2023-04-26T04:57:29;17.95;;;7.75;;
25125;SDS011;13106;50.808;5.670;2023-04-26T04:59:56;15.68;;;8.65;;
25125;SDS011;13106;50.808;5.670;2023-04-26T05:02:22;16.45;;;10.32;;
25125;SDS011;13106;50.808;5.670;2023-04-26T05:04:49;21.80;;;12.82;;
25125;SDS011;13106;50.808;5.670;2023-04-26T05:07:15;18.20;;;13.55;;
25125;SDS011;13106;50.808;5.670;2023-04-26T05:09:42;24.38;;;15.18;;
25125;SDS011;13106;50.808;5.670;2023-04-26T05:12:08;25.08;;;14.45;;
25125;SDS011;13106;50.808;5.670;2023-04-26T05:14:34;18.85;;;14.77;;
25125;SDS011;13106;50.808;5.670;2023-04-26T05:17:00;25.58;;;15.85;;
25125;SDS011;13106;50.808;5.670;2023-04-26T05:19:26;24.90;;;16.27;;
25125;SDS011;13106;50.808;5.670;2023-04-26T05:21:53;25.00;;;15.40;;
25125;SDS011;13106;50.808;5.670;2023-04-26T05:24:19;26.40;;;15.68;;
25125;SDS011;13106;50.808;5.670;2023-04-26T05:26:45;19.65;;;12.23;;
25125;SDS011;13106;50.808;5.670;2023-04-26T05:29:11;16.20;;;10.43;;
25125;SDS011;13106;50.808;5.670;2023-04-26T05:31:37;19.80;;;10.90;;
25125;SDS011;13106;50.808;5.670;2023-04-26T05:34:03;22.58;;;12.65;;
25125;SDS011;13106;50.808;5.670;2023-04-26T05:36:29;19.45;;;11.43;;
25125;SDS011;13106;50.808;5.670;2023-04-26T05:38:56;16.77;;;10.98;;
25125;SDS011;13106;50.808;5.670;2023-04-26T05:41:22;19.00;;;10.35;;
25125;SDS011;13106;50.808;5.670;2023-04-26T05:43:48;20.35;;;10.35;;
25125;SDS011;13106;50.808;5.670;2023-04-26T05:46:15;21.17;;;9.98;;
25125;SDS011;13106;50.808;5.670;2023-04-26T05:48:41;18.33;;;8.75;;
25125;SDS011;13106;50.808;5.670;2023-04-26T05:51:07;19.00;;;9.60;;
25125;SDS011;13106;50.808;5.670;2023-04-26T05:53:33;25.02;;;8.95;;
25125;SDS011;13106;50.808;5.670;2023-04-26T05:55:59;15.43;;;8.10;;
25125;SDS011;13106;50.808;5.670;2023-04-26T05:58:25;20.02;;;7.68;;
25125;SDS011;13106;50.808;5.670;2023-04-26T06:00:52;25.27;;;9.00;;
25125;SDS011;13106;50.808;5.670;2023-04-26T06:03:18;13.23;;;7.97;;
25125;SDS011;13106;50.808;5.670;2023-04-26T06:05:44;26.15;;;9.52;;
25125;SDS011;13106;50.808;5.670;2023-04-26T06:08:10;19.83;;;8.07;;
25125;SDS011;13106;50.808;5.670;2023-04-26T06:10:36;26.85;;;11.35;;
25125;SDS011;13106;50.808;5.670;2023-04-26T06:13:02;33.88;;;10.38;;
25125;SDS011;13106;50.808;5.670;2023-04-26T06:15:28;23.20;;;9.85;;
25125;SDS011;13106;50.808;5.670;2023-04-26T06:17:55;21.23;;;10.93;;
25125;SDS011;13106;50.808;5.670;2023-04-26T06:20:21;23.75;;;8.88;;
25125;SDS011;13106;50.808;5.670;2023-04-26T06:22:48;20.92;;;10.23;;
25125;SDS011;13106;50.808;5.670;2023-04-26T06:25:14;21.58;;;9.80;;
25125;SDS011;13106;50.808;5.670;2023-04-26T06:27:40;18.08;;;9.43;;
25125;SDS011;13106;50.808;5.670;2023-04-26T06:30:06;28.20;;;10.73;;
25125;SDS011;13106;50.808;5.670;2023-04-26T06:32:32;16.80;;;10.43;;
25125;SDS011;13106;50.808;5.670;2023-04-26T06:34:59;14.45;;;10.02;;
25125;SDS011;13106;50.808;5.670;2023-04-26T06:37:25;16.60;;;8.88;;
25125;SDS011;13106;50.808;5.670;2023-04-26T06:39:51;24.55;;;10.02;;
25125;SDS011;13106;50.808;5.670;2023-04-26T06:42:17;18.48;;;10.00;;
25125;SDS011;13106;50.808;5.670;2023-04-26T06:44:43;24.40;;;11.02;;
25125;SDS011;13106;50.808;5.670;2023-04-26T06:47:09;21.20;;;10.30;;
25125;SDS011;13106;50.808;5.670;2023-04-26T06:49:35;20.35;;;8.60;;
25125;SDS011;13106;50.808;5.670;2023-04-26T06:52:01;16.63;;;7.07;;
25125;SDS011;13106;50.808;5.670;2023-04-26T06:54:28;17.85;;;9.13;;
25125;SDS011;13106;50.808;5.670;2023-04-26T06:56:54;23.27;;;8.18;;
25125;SDS011;13106;50.808;5.670;2023-04-26T06:59:20;18.05;;;7.70;;
25125;SDS011;13106;50.808;5.670;2023-04-26T07:01:46;18.42;;;8.57;;
25125;SDS011;13106;50.808;5.670;2023-04-26T07:04:12;12.35;;;7.13;;
25125;SDS011;13106;50.808;5.670;2023-04-26T07:06:39;18.98;;;8.73;;
25125;SDS011;13106;50.808;5.670;2023-04-26T07:09:05;26.50;;;8.25;;
25125;SDS011;13106;50.808;5.670;2023-04-26T07:11:32;18.67;;;8.00;;
25125;SDS011;13106;50.808;5.670;2023-04-26T07:13:58;23.88;;;7.55;;
25125;SDS011;13106;50.808;5.670;2023-04-26T07:16:25;21.42;;;7.95;;
25125;SDS011;13106;50.808;5.670;2023-04-26T07:18:51;23.90;;;8.82;;
25125;SDS011;13106;50.808;5.670;2023-04-26T07:21:17;18.08;;;8.07;;
25125;SDS011;13106;50.808;5.670;2023-04-26T07:23:43;23.00;;;8.52;;
25125;SDS011;13106;50.808;5.670;2023-04-26T07:26:10;18.67;;;8.45;;
25125;SDS011;13106;50.808;5.670;2023-04-26T07:28:36;13.05;;;8.02;;
25125;SDS011;13106;50.808;5.670;2023-04-26T07:31:02;18.88;;;8.40;;
25125;SDS011;13106;50.808;5.670;2023-04-26T07:33:28;21.25;;;8.27;;
25125;SDS011;13106;50.808;5.670;2023-04-26T07:35:55;15.20;;;7.97;;
25125;SDS011;13106;50.808;5.670;2023-04-26T07:38:21;19.10;;;7.60;;
25125;SDS011;13106;50.808;5.670;2023-04-26T07:40:48;17.20;;;7.25;;
25125;SDS011;13106;50.808;5.670;2023-04-26T07:43:14;23.00;;;7.82;;
25125;SDS011;13106;50.808;5.670;2023-04-26T07:45:41;19.02;;;7.28;;
25125;SDS011;13106;50.808;5.670;2023-04-26T07:48:07;13.52;;;7.07;;
25125;SDS011;13106;50.808;5.670;2023-04-26T07:50:33;14.55;;;6.75;;
25125;SDS011;13106;50.808;5.670;2023-04-26T07:53:00;15.15;;;6.90;;
25125;SDS011;13106;50.808;5.670;2023-04-26T07:55:26;14.90;;;6.80;;
25125;SDS011;13106;50.808;5.670;2023-04-26T07:57:52;15.65;;;7.05;;
25125;SDS011;13106;50.808;5.670;2023-04-26T08:00:18;16.63;;;7.03;;
25125;SDS011;13106;50.808;5.670;2023-04-26T08:02:46;15.10;;;6.68;;
25125;SDS011;13106;50.808;5.670;2023-04-26T08:05:13;21.92;;;7.90;;
25125;SDS011;13106;50.808;5.670;2023-04-26T08:07:39;14.43;;;7.60;;
25125;SDS011;13106;50.808;5.670;2023-04-26T08:10:05;20.67;;;6.93;;
25125;SDS011;13106;50.808;5.670;2023-04-26T08:12:32;18.10;;;7.60;;
25125;SDS011;13106;50.808;5.670;2023-04-26T08:14:58;17.88;;;6.95;;
25125;SDS011;13106;50.808;5.670;2023-04-26T08:17:25;17.80;;;5.82;;
25125;SDS011;13106;50.808;5.670;2023-04-26T08:19:51;17.75;;;5.30;;
25125;SDS011;13106;50.808;5.670;2023-04-26T08:22:17;16.23;;;5.88;;
25125;SDS011;13106;50.808;5.670;2023-04-26T08:24:49;20.75;;;7.88;;
25125;SDS011;13106;50.808;5.670;2023-04-26T08:27:18;17.92;;;9.02;;
25125;SDS011;13106;50.808;5.670;2023-04-26T08:29:45;16.10;;;8.98;;
25125;SDS011;13106;50.808;5.670;2023-04-26T08:32:11;16.38;;;7.85;;
25125;SDS011;13106;50.808;5.670;2023-04-26T08:34:37;20.27;;;8.35;;
25125;SDS011;13106;50.808;5.670;2023-04-26T08:37:05;20.73;;;9.25;;
25125;SDS011;13106;50.808;5.670;2023-04-26T08:39:32;20.05;;;9.52;;
25125;SDS011;13106;50.808;5.670;2023-04-26T08:41:59;15.55;;;8.05;;
25125;SDS011;13106;50.808;5.670;2023-04-26T08:44:29;18.88;;;8.65;;
25125;SDS011;13106;50.808;5.670;2023-04-26T08:47:00;15.52;;;6.45;;
25125;SDS011;13106;50.808;5.670;2023-04-26T08:51:54;20.45;;;6.38;;
25125;SDS011;13106;50.808;5.670;2023-04-26T08:54:21;15.95;;;6.90;;
25125;SDS011;13106;50.808;5.670;2023-04-26T08:56:47;15.70;;;6.10;;
25125;SDS011;13106;50.808;5.670;2023-04-26T08:59:16;10.13;;;6.03;;
25125;SDS011;13106;50.808;5.670;2023-04-26T09:01:42;14.65;;;6.32;;
25125;SDS011;13106;50.808;5.670;2023-04-26T09:04:09;11.52;;;5.47;;
25125;SDS011;13106;50.808;5.670;2023-04-26T09:06:35;11.80;;;5.18;;
25125;SDS011;13106;50.808;5.670;2023-04-26T09:09:02;8.40;;;3.15;;
25125;SDS011;13106;50.808;5.670;2023-04-26T09:11:29;9.45;;;4.43;;
25125;SDS011;13106;50.808;5.670;2023-04-26T09:13:55;10.38;;;4.90;;
25125;SDS011;13106;50.808;5.670;2023-04-26T09:16:34;10.13;;;4.80;;
25125;SDS011;13106;50.808;5.670;2023-04-26T09:19:03;15.73;;;5.32;;
25125;SDS011;13106;50.808;5.670;2023-04-26T09:21:30;14.88;;;4.15;;
25125;SDS011;13106;50.808;5.670;2023-04-26T09:23:57;10.57;;;4.72;;
25125;SDS011;13106;50.808;5.670;2023-04-26T09:26:23;9.23;;;4.95;;
25125;SDS011;13106;50.808;5.670;2023-04-26T09:28:51;7.82;;;4.63;;
25125;SDS011;13106;50.808;5.670;2023-04-26T09:31:36;13.95;;;4.78;;
25125;SDS011;13106;50.808;5.670;2023-04-26T09:34:02;10.50;;;3.42;;
25125;SDS011;13106;50.808;5.670;2023-04-26T09:36:28;8.00;;;3.10;;
25125;SDS011;13106;50.808;5.670;2023-04-26T09:38:55;7.35;;;3.05;;
25125;SDS011;13106;50.808;5.670;2023-04-26T09:41:21;6.95;;;2.85;;
25125;SDS011;13106;50.808;5.670;2023-04-26T09:43:49;6.13;;;2.70;;
25125;SDS011;13106;50.808;5.670;2023-04-26T09:46:21;7.38;;;4.03;;
25125;SDS011;13106;50.808;5.670;2023-04-26T09:48:59;7.68;;;2.80;;
25125;SDS011;13106;50.808;5.670;2023-04-26T09:51:26;11.93;;;3.45;;
25125;SDS011;13106;50.808;5.670;2023-04-26T09:53:54;8.13;;;2.92;;
25125;SDS011;13106;50.808;5.670;2023-04-26T09:56:20;4.53;;;2.67;;
25125;SDS011;13106;50.808;5.670;2023-04-26T10:01:14;7.22;;;2.60;;
25125;SDS011;13106;50.808;5.670;2023-04-26T10:03:41;6.00;;;2.50;;
25125;SDS011;13106;50.808;5.670;2023-04-26T10:06:08;5.10;;;2.35;;
25125;SDS011;13106;50.808;5.670;2023-04-26T10:08:34;7.15;;;2.20;;
25125;SDS011;13106;50.808;5.670;2023-04-26T10:11:02;5.25;;;1.75;;
25125;SDS011;13106;50.808;5.670;2023-04-26T10:13:30;5.13;;;2.03;;
25125;SDS011;13106;50.808;5.670;2023-04-26T10:15:57;5.35;;;1.95;;
25125;SDS011;13106;50.808;5.670;2023-04-26T10:18:23;3.63;;;2.03;;
25125;SDS011;13106;50.808;5.670;2023-04-26T10:20:51;5.63;;;2.13;;
25125;SDS011;13106;50.808;5.670;2023-04-26T10:23:19;8.20;;;2.60;;
25125;SDS011;13106;50.808;5.670;2023-04-26T10:25:46;10.88;;;2.72;;
25125;SDS011;13106;50.808;5.670;2023-04-26T10:28:12;7.50;;;2.20;;
25125;SDS011;13106;50.808;5.670;2023-04-26T10:30:57;10.07;;;2.20;;
25125;SDS011;13106;50.808;5.670;2023-04-26T10:33:24;4.47;;;2.00;;
25125;SDS011;13106;50.808;5.670;2023-04-26T10:36:04;6.00;;;2.20;;
25125;SDS011;13106;50.808;5.670;2023-04-26T10:38:31;6.50;;;2.15;;
25125;SDS011;13106;50.808;5.670;2023-04-26T10:43:42;7.40;;;2.40;;
25125;SDS011;13106;50.808;5.670;2023-04-26T10:48:53;7.15;;;2.30;;
25125;SDS011;13106;50.808;5.670;2023-04-26T10:51:20;8.27;;;3.28;;
25125;SDS011;13106;50.808;5.670;2023-04-26T10:58:47;12.23;;;4.53;;
25125;SDS011;13106;50.808;5.670;2023-04-26T11:06:23;9.38;;;3.50;;
25125;SDS011;13106;50.808;5.670;2023-04-26T11:08:50;12.65;;;4.18;;
25125;SDS011;13106;50.808;5.670;2023-04-26T11:11:17;10.98;;;4.18;;
25125;SDS011;13106;50.808;5.670;2023-04-26T11:13:45;9.98;;;3.72;;
25125;SDS011;13106;50.808;5.670;2023-04-26T11:16:12;8.40;;;3.40;;
25125;SDS011;13106;50.808;5.670;2023-04-26T11:18:39;11.63;;;2.78;;
25125;SDS011;13106;50.808;5.670;2023-04-26T11:21:06;6.90;;;2.33;;
25125;SDS011;13106;50.808;5.670;2023-04-26T11:23:32;10.25;;;2.70;;
25125;SDS011;13106;50.808;5.670;2023-04-26T11:25:59;7.47;;;2.47;;
25125;SDS011;13106;50.808;5.670;2023-04-26T11:28:27;5.80;;;2.65;;
25125;SDS011;13106;50.808;5.670;2023-04-26T11:30:53;6.18;;;2.90;;
25125;SDS011;13106;50.808;5.670;2023-04-26T11:33:20;11.10;;;3.53;;
25125;SDS011;13106;50.808;5.670;2023-04-26T11:35:56;9.55;;;3.55;;
25125;SDS011;13106;50.808;5.670;2023-04-26T11:38:23;10.77;;;3.85;;
25125;SDS011;13106;50.808;5.670;2023-04-26T11:40:56;8.52;;;3.80;;
25125;SDS011;13106;50.808;5.670;2023-04-26T11:43:28;6.55;;;3.15;;
25125;SDS011;13106;50.808;5.670;2023-04-26T11:45:57;5.55;;;3.38;;
25125;SDS011;13106;50.808;5.670;2023-04-26T11:48:24;7.68;;;3.50;;
25125;SDS011;13106;50.808;5.670;2023-04-26T11:50:50;8.40;;;3.78;;
25125;SDS011;13106;50.808;5.670;2023-04-26T11:53:16;9.07;;;3.58;;
25125;SDS011;13106;50.808;5.670;2023-04-26T11:55:43;6.25;;;3.80;;
25125;SDS011;13106;50.808;5.670;2023-04-26T11:58:13;7.55;;;3.80;;
25125;SDS011;13106;50.808;5.670;2023-04-26T12:03:21;7.95;;;3.50;;
25125;SDS011;13106;50.808;5.670;2023-04-26T12:05:54;7.40;;;3.47;;
25125;SDS011;13106;50.808;5.670;2023-04-26T12:08:25;10.55;;;3.33;;
25125;SDS011;13106;50.808;5.670;2023-04-26T12:10:51;9.68;;;3.30;;
25125;SDS011;13106;50.808;5.670;2023-04-26T12:13:18;8.75;;;3.85;;
25125;SDS011;13106;50.808;5.670;2023-04-26T12:15:44;11.32;;;3.95;;
25125;SDS011;13106;50.808;5.670;2023-04-26T12:18:11;6.40;;;3.88;;
25125;SDS011;13106;50.808;5.670;2023-04-26T12:20:40;10.73;;;3.83;;
25125;SDS011;13106;50.808;5.670;2023-04-26T12:23:12;7.03;;;3.75;;
25125;SDS011;13106;50.808;5.670;2023-04-26T12:25:39;6.63;;;4.10;;
25125;SDS011;13106;50.808;5.670;2023-04-26T12:28:07;6.85;;;3.88;;
25125;SDS011;13106;50.808;5.670;2023-04-26T12:30:36;9.15;;;3.85;;
25125;SDS011;13106;50.808;5.670;2023-04-26T12:33:02;8.63;;;4.03;;
25125;SDS011;13106;50.808;5.670;2023-04-26T12:35:29;9.80;;;4.10;;
25125;SDS011;13106;50.808;5.670;2023-04-26T12:37:55;8.43;;;3.63;;
25125;SDS011;13106;50.808;5.670;2023-04-26T12:40:22;7.03;;;3.95;;
25125;SDS011;13106;50.808;5.670;2023-04-26T12:42:48;8.05;;;3.67;;
25125;SDS011;13106;50.808;5.670;2023-04-26T12:45:15;8.00;;;3.80;;
25125;SDS011;13106;50.808;5.670;2023-04-26T12:47:42;8.07;;;3.70;;
25125;SDS011;13106;50.808;5.670;2023-04-26T12:50:09;8.85;;;3.50;;
25125;SDS011;13106;50.808;5.670;2023-04-26T12:52:37;7.60;;;3.60;;
25125;SDS011;13106;50.808;5.670;2023-04-26T12:55:03;12.45;;;3.78;;
25125;SDS011;13106;50.808;5.670;2023-04-26T12:57:29;6.38;;;4.00;;
25125;SDS011;13106;50.808;5.670;2023-04-26T12:59:55;7.80;;;3.78;;
25125;SDS011;13106;50.808;5.670;2023-04-26T13:02:21;9.05;;;4.20;;
25125;SDS011;13106;50.808;5.670;2023-04-26T13:04:48;10.52;;;4.20;;
25125;SDS011;13106;50.808;5.670;2023-04-26T13:07:14;9.73;;;4.15;;
25125;SDS011;13106;50.808;5.670;2023-04-26T13:09:41;8.20;;;4.90;;
25125;SDS011;13106;50.808;5.670;2023-04-26T13:12:07;8.55;;;4.30;;
25125;SDS011;13106;50.808;5.670;2023-04-26T13:14:33;9.10;;;4.05;;
25125;SDS011;13106;50.808;5.670;2023-04-26T13:16:59;11.40;;;4.43;;
25125;SDS011;13106;50.808;5.670;2023-04-26T13:19:25;8.95;;;4.03;;
25125;SDS011;13106;50.808;5.670;2023-04-26T13:21:51;11.13;;;4.32;;
25125;SDS011;13106;50.808;5.670;2023-04-26T13:24:17;9.25;;;5.07;;
25125;SDS011;13106;50.808;5.670;2023-04-26T13:26:44;8.05;;;4.43;;
25125;SDS011;13106;50.808;5.670;2023-04-26T13:29:10;7.60;;;4.43;;
25125;SDS011;13106;50.808;5.670;2023-04-26T13:31:36;7.45;;;4.05;;
25125;SDS011;13106;50.808;5.670;2023-04-26T13:34:03;7.13;;;4.18;;
25125;SDS011;13106;50.808;5.670;2023-04-26T13:36:30;7.75;;;4.00;;
25125;SDS011;13106;50.808;5.670;2023-04-26T13:38:56;7.00;;;4.30;;
25125;SDS011;13106;50.808;5.670;2023-04-26T13:41:23;10.80;;;4.40;;
25125;SDS011;13106;50.808;5.670;2023-04-26T13:43:49;7.72;;;3.92;;
25125;SDS011;13106;50.808;5.670;2023-04-26T13:46:15;7.47;;;3.60;;
25125;SDS011;13106;50.808;5.670;2023-04-26T13:48:41;8.43;;;4.05;;
25125;SDS011;13106;50.808;5.670;2023-04-26T13:51:07;6.55;;;4.13;;
25125;SDS011;13106;50.808;5.670;2023-04-26T13:53:35;5.53;;;4.10;;
25125;SDS011;13106;50.808;5.670;2023-04-26T13:56:01;5.78;;;3.40;;
25125;SDS011;13106;50.808;5.670;2023-04-26T13:58:27;4.30;;;3.10;;
25125;SDS011;13106;50.808;5.670;2023-04-26T14:00:53;9.10;;;4.03;;
25125;SDS011;13106;50.808;5.670;2023-04-26T14:03:20;8.05;;;3.88;;
25125;SDS011;13106;50.808;5.670;2023-04-26T14:05:46;7.32;;;3.55;;
25125;SDS011;13106;50.808;5.670;2023-04-26T14:08:12;6.55;;;3.55;;
25125;SDS011;13106;50.808;5.670;2023-04-26T14:10:38;5.57;;;3.40;;
25125;SDS011;13106;50.808;5.670;2023-04-26T14:13:04;6.20;;;3.33;;
25125;SDS011;13106;50.808;5.670;2023-04-26T14:15:31;5.38;;;3.53;;
25125;SDS011;13106;50.808;5.670;2023-04-26T14:17:57;5.25;;;3.50;;
25125;SDS011;13106;50.808;5.670;2023-04-26T14:20:23;5.22;;;3.67;;
25125;SDS011;13106;50.808;5.670;2023-04-26T14:22:49;9.90;;;4.28;;
25125;SDS011;13106;50.808;5.670;2023-04-26T14:25:15;9.98;;;3.90;;
25125;SDS011;13106;50.808;5.670;2023-04-26T14:27:41;6.20;;;3.80;;
25125;SDS011;13106;50.808;5.670;2023-04-26T14:30:07;5.43;;;3.30;;
25125;SDS011;13106;50.808;5.670;2023-04-26T14:32:33;6.50;;;3.40;;
25125;SDS011;13106;50.808;5.670;2023-04-26T14:34:59;5.25;;;2.95;;
25125;SDS011;13106;50.808;5.670;2023-04-26T14:37:25;6.93;;;3.58;;
25125;SDS011;13106;50.808;5.670;2023-04-26T14:39:52;11.45;;;4.30;;
25125;SDS011;13106;50.808;5.670;2023-04-26T14:42:18;12.00;;;3.75;;
25125;SDS011;13106;50.808;5.670;2023-04-26T14:44:44;25.33;;;6.05;;
25125;SDS011;13106;50.808;5.670;2023-04-26T14:47:10;6.60;;;3.83;;
25125;SDS011;13106;50.808;5.670;2023-04-26T14:49:36;4.15;;;3.30;;
25125;SDS011;13106;50.808;5.670;2023-04-26T14:52:02;8.55;;;3.53;;
25125;SDS011;13106;50.808;5.670;2023-04-26T14:54:28;5.85;;;3.67;;
25125;SDS011;13106;50.808;5.670;2023-04-26T14:56:55;6.22;;;4.10;;
25125;SDS011;13106;50.808;5.670;2023-04-26T14:59:22;4.55;;;3.42;;